sensor_id;sensor_type;location;lat;lon;timestamp;P1;durP1;ratioP1;P2;durP2;ratioP2
68940;SDS011;55982;51.476;7.552;2022-12-20T00:02:06;5.65;;;3.38;;
68940;SDS011;55982;51.476;7.552;2022-12-20T00:04:31;5.90;;;3.50;;
68940;SDS011;55982;51.476;7.552;2022-12-20T00:06:56;7.55;;;3.75;;
68940;SDS011;55982;51.476;7.552;2022-12-20T00:09:22;6.65;;;3.00;;
68940;SDS011;55982;51.476;7.552;2022-12-20T00:11:49;7.97;;;3.67;;
68940;SDS011;55982;51.476;7.552;2022-12-20T00:14:15;8.55;;;3.08;;
68940;SDS011;55982;51.476;7.552;2022-12-20T00:16:40;5.85;;;3.53;;
68940;SDS011;55982;51.476;7.552;2022-12-20T00:19:06;4.55;;;3.10;;
68940;SDS011;55982;51.476;7.552;2022-12-20T00:21:32;4.82;;;3.05;;
68940;SDS011;55982;51.476;7.552;2022-12-20T00:23:58;5.13;;;3.40;;
68940;SDS011;55982;51.476;7.552;2022-12-20T00:26:25;3.15;;;2.58;;
68940;SDS011;55982;51.476;7.552;2022-12-20T00:28:53;6.35;;;3.33;;
68940;SDS011;55982;51.476;7.552;2022-12-20T00:31:19;5.93;;;3.22;;
68940;SDS011;55982;51.476;7.552;2022-12-20T00:33:47;4.82;;;3.30;;
68940;SDS011;55982;51.476;7.552;2022-12-20T00:36:14;4.75;;;2.90;;
68940;SDS011;55982;51.476;7.552;2022-12-20T00:38:41;5.15;;;3.22;;
68940;SDS011;55982;51.476;7.552;2022-12-20T00:41:10;5.47;;;3.35;;
68940;SDS011;55982;51.476;7.552;2022-12-20T00:43:37;5.15;;;3.40;;
68940;SDS011;55982;51.476;7.552;2022-12-20T00:46:04;7.15;;;3.92;;
68940;SDS011;55982;51.476;7.552;2022-12-20T00:48:31;4.28;;;3.45;;
68940;SDS011;55982;51.476;7.552;2022-12-20T00:51:01;4.45;;;2.92;;
68940;SDS011;55982;51.476;7.552;2022-12-20T00:53:28;6.25;;;3.53;;
68940;SDS011;55982;51.476;7.552;2022-12-20T00:55:55;3.88;;;3.15;;
68940;SDS011;55982;51.476;7.552;2022-12-20T00:58:21;4.63;;;3.33;;
68940;SDS011;55982;51.476;7.552;2022-12-20T01:00:46;4.72;;;3.30;;
68940;SDS011;55982;51.476;7.552;2022-12-20T01:03:12;3.50;;;3.00;;
68940;SDS011;55982;51.476;7.552;2022-12-20T01:05:37;4.40;;;3.00;;
68940;SDS011;55982;51.476;7.552;2022-12-20T01:08:03;4.35;;;3.28;;
68940;SDS011;55982;51.476;7.552;2022-12-20T01:10:30;5.80;;;3.42;;
68940;SDS011;55982;51.476;7.552;2022-12-20T01:12:55;5.75;;;2.78;;
68940;SDS011;55982;51.476;7.552;2022-12-20T01:15:21;8.85;;;3.25;;
68940;SDS011;55982;51.476;7.552;2022-12-20T01:17:46;6.00;;;3.60;;
68940;SDS011;55982;51.476;7.552;2022-12-20T01:20:12;6.45;;;3.47;;
68940;SDS011;55982;51.476;7.552;2022-12-20T01:22:37;6.13;;;3.33;;
68940;SDS011;55982;51.476;7.552;2022-12-20T01:25:03;6.28;;;3.78;;
68940;SDS011;55982;51.476;7.552;2022-12-20T01:27:29;6.25;;;3.35;;
68940;SDS011;55982;51.476;7.552;2022-12-20T01:29:54;5.18;;;3.20;;
68940;SDS011;55982;51.476;7.552;2022-12-20T01:32:20;4.45;;;3.17;;
68940;SDS011;55982;51.476;7.552;2022-12-20T01:34:45;7.15;;;3.63;;
68940;SDS011;55982;51.476;7.552;2022-12-20T01:37:11;7.72;;;3.60;;
68940;SDS011;55982;51.476;7.552;2022-12-20T01:39:36;6.72;;;3.13;;
68940;SDS011;55982;51.476;7.552;2022-12-20T01:42:02;4.30;;;3.17;;
68940;SDS011;55982;51.476;7.552;2022-12-20T01:46:53;4.07;;;3.20;;
68940;SDS011;55982;51.476;7.552;2022-12-20T01:54:27;5.40;;;3.42;;
68940;SDS011;55982;51.476;7.552;2022-12-20T01:57:03;4.93;;;3.50;;
68940;SDS011;55982;51.476;7.552;2022-12-20T01:59:30;8.35;;;3.75;;
68940;SDS011;55982;51.476;7.552;2022-12-20T02:02:01;5.55;;;3.20;;
68940;SDS011;55982;51.476;7.552;2022-12-20T02:04:29;5.95;;;3.40;;
68940;SDS011;55982;51.476;7.552;2022-12-20T02:06:54;7.95;;;3.55;;
68940;SDS011;55982;51.476;7.552;2022-12-20T02:09:20;5.35;;;3.85;;
68940;SDS011;55982;51.476;7.552;2022-12-20T02:11:57;5.40;;;3.58;;
68940;SDS011;55982;51.476;7.552;2022-12-20T02:14:39;6.75;;;3.83;;
68940;SDS011;55982;51.476;7.552;2022-12-20T02:23:10;5.45;;;3.60;;
68940;SDS011;55982;51.476;7.552;2022-12-20T02:30:56;6.18;;;4.35;;
68940;SDS011;55982;51.476;7.552;2022-12-20T02:33:27;5.80;;;3.70;;
68940;SDS011;55982;51.476;7.552;2022-12-20T02:35:53;8.90;;;4.00;;
68940;SDS011;55982;51.476;7.552;2022-12-20T02:40:50;6.03;;;3.70;;
68940;SDS011;55982;51.476;7.552;2022-12-20T02:43:21;6.60;;;4.10;;
68940;SDS011;55982;51.476;7.552;2022-12-20T02:46:07;6.57;;;4.32;;
68940;SDS011;55982;51.476;7.552;2022-12-20T02:48:34;6.28;;;4.40;;
68940;SDS011;55982;51.476;7.552;2022-12-20T02:51:02;6.80;;;4.28;;
68940;SDS011;55982;51.476;7.552;2022-12-20T02:53:30;6.43;;;3.97;;
68940;SDS011;55982;51.476;7.552;2022-12-20T02:55:58;7.70;;;4.47;;
68940;SDS011;55982;51.476;7.552;2022-12-20T02:58:33;10.73;;;4.32;;
68940;SDS011;55982;51.476;7.552;2022-12-20T03:01:07;5.70;;;4.18;;
68940;SDS011;55982;51.476;7.552;2022-12-20T03:03:37;7.50;;;4.47;;
68940;SDS011;55982;51.476;7.552;2022-12-20T03:06:03;6.68;;;4.25;;
68940;SDS011;55982;51.476;7.552;2022-12-20T03:08:29;8.20;;;4.28;;
68940;SDS011;55982;51.476;7.552;2022-12-20T03:10:55;8.65;;;4.78;;
68940;SDS011;55982;51.476;7.552;2022-12-20T03:13:21;9.73;;;4.85;;
68940;SDS011;55982;51.476;7.552;2022-12-20T03:15:48;8.10;;;4.25;;
68940;SDS011;55982;51.476;7.552;2022-12-20T03:18:13;8.88;;;4.30;;
68940;SDS011;55982;51.476;7.552;2022-12-20T03:20:39;11.50;;;4.80;;
68940;SDS011;55982;51.476;7.552;2022-12-20T03:23:04;7.25;;;4.55;;
68940;SDS011;55982;51.476;7.552;2022-12-20T03:25:30;6.38;;;4.22;;
68940;SDS011;55982;51.476;7.552;2022-12-20T03:27:56;7.25;;;4.80;;
68940;SDS011;55982;51.476;7.552;2022-12-20T03:30:21;6.82;;;4.35;;
68940;SDS011;55982;51.476;7.552;2022-12-20T03:32:47;8.10;;;4.60;;
68940;SDS011;55982;51.476;7.552;2022-12-20T03:35:12;7.93;;;4.63;;
68940;SDS011;55982;51.476;7.552;2022-12-20T03:37:38;8.20;;;4.50;;
68940;SDS011;55982;51.476;7.552;2022-12-20T03:40:03;8.43;;;4.30;;
68940;SDS011;55982;51.476;7.552;2022-12-20T03:42:29;7.85;;;4.68;;
68940;SDS011;55982;51.476;7.552;2022-12-20T03:44:55;6.47;;;4.15;;
68940;SDS011;55982;51.476;7.552;2022-12-20T03:47:20;8.40;;;4.55;;
68940;SDS011;55982;51.476;7.552;2022-12-20T03:49:46;7.70;;;4.75;;
68940;SDS011;55982;51.476;7.552;2022-12-20T03:52:11;8.05;;;4.93;;
68940;SDS011;55982;51.476;7.552;2022-12-20T03:54:37;5.90;;;4.55;;
68940;SDS011;55982;51.476;7.552;2022-12-20T03:57:02;10.55;;;5.22;;
68940;SDS011;55982;51.476;7.552;2022-12-20T03:59:28;7.68;;;4.57;;
68940;SDS011;55982;51.476;7.552;2022-12-20T04:01:53;8.23;;;4.28;;
68940;SDS011;55982;51.476;7.552;2022-12-20T04:04:19;6.95;;;4.60;;
68940;SDS011;55982;51.476;7.552;2022-12-20T04:06:44;7.88;;;4.70;;
68940;SDS011;55982;51.476;7.552;2022-12-20T04:09:10;9.13;;;4.75;;
68940;SDS011;55982;51.476;7.552;2022-12-20T04:11:35;6.50;;;4.68;;
68940;SDS011;55982;51.476;7.552;2022-12-20T04:14:00;7.00;;;4.90;;
68940;SDS011;55982;51.476;7.552;2022-12-20T04:16:27;9.57;;;4.85;;
68940;SDS011;55982;51.476;7.552;2022-12-20T04:18:53;7.70;;;4.82;;
68940;SDS011;55982;51.476;7.552;2022-12-20T04:21:22;11.05;;;5.00;;
68940;SDS011;55982;51.476;7.552;2022-12-20T04:23:52;8.80;;;5.22;;
68940;SDS011;55982;51.476;7.552;2022-12-20T04:26:18;10.70;;;5.25;;
68940;SDS011;55982;51.476;7.552;2022-12-20T04:28:43;6.00;;;4.53;;
68940;SDS011;55982;51.476;7.552;2022-12-20T04:31:09;12.32;;;5.50;;
68940;SDS011;55982;51.476;7.552;2022-12-20T04:33:34;13.63;;;5.22;;
68940;SDS011;55982;51.476;7.552;2022-12-20T04:36:00;8.77;;;5.68;;
68940;SDS011;55982;51.476;7.552;2022-12-20T04:38:25;7.20;;;5.38;;
68940;SDS011;55982;51.476;7.552;2022-12-20T04:40:51;10.20;;;5.90;;
68940;SDS011;55982;51.476;7.552;2022-12-20T04:43:17;7.90;;;5.13;;
68940;SDS011;55982;51.476;7.552;2022-12-20T04:45:43;10.05;;;5.07;;
68940;SDS011;55982;51.476;7.552;2022-12-20T04:48:10;9.98;;;5.93;;
68940;SDS011;55982;51.476;7.552;2022-12-20T04:50:37;8.55;;;5.68;;
68940;SDS011;55982;51.476;7.552;2022-12-20T04:53:02;7.43;;;6.10;;
68940;SDS011;55982;51.476;7.552;2022-12-20T04:55:46;12.85;;;6.55;;
68940;SDS011;55982;51.476;7.552;2022-12-20T04:58:11;11.93;;;6.20;;
68940;SDS011;55982;51.476;7.552;2022-12-20T05:00:37;12.90;;;6.03;;
68940;SDS011;55982;51.476;7.552;2022-12-20T05:03:02;10.55;;;6.95;;
68940;SDS011;55982;51.476;7.552;2022-12-20T05:05:27;9.38;;;6.47;;
68940;SDS011;55982;51.476;7.552;2022-12-20T05:07:53;12.48;;;6.30;;
68940;SDS011;55982;51.476;7.552;2022-12-20T05:10:19;14.82;;;6.78;;
68940;SDS011;55982;51.476;7.552;2022-12-20T05:12:44;14.73;;;7.20;;
68940;SDS011;55982;51.476;7.552;2022-12-20T05:15:10;11.23;;;7.18;;
68940;SDS011;55982;51.476;7.552;2022-12-20T05:17:36;11.75;;;7.28;;
68940;SDS011;55982;51.476;7.552;2022-12-20T05:20:02;13.57;;;7.32;;
68940;SDS011;55982;51.476;7.552;2022-12-20T05:22:28;10.63;;;6.57;;
68940;SDS011;55982;51.476;7.552;2022-12-20T05:25:12;15.73;;;7.88;;
68940;SDS011;55982;51.476;7.552;2022-12-20T05:27:56;13.95;;;7.35;;
68940;SDS011;55982;51.476;7.552;2022-12-20T05:30:23;13.57;;;7.63;;
68940;SDS011;55982;51.476;7.552;2022-12-20T05:32:49;13.05;;;7.57;;
68940;SDS011;55982;51.476;7.552;2022-12-20T05:35:14;12.93;;;8.10;;
68940;SDS011;55982;51.476;7.552;2022-12-20T05:37:40;15.05;;;7.47;;
68940;SDS011;55982;51.476;7.552;2022-12-20T05:40:05;13.07;;;7.82;;
68940;SDS011;55982;51.476;7.552;2022-12-20T05:42:31;13.73;;;7.15;;
68940;SDS011;55982;51.476;7.552;2022-12-20T05:44:57;17.92;;;8.23;;
68940;SDS011;55982;51.476;7.552;2022-12-20T05:47:22;15.68;;;7.68;;
68940;SDS011;55982;51.476;7.552;2022-12-20T05:49:48;11.73;;;6.90;;
68940;SDS011;55982;51.476;7.552;2022-12-20T05:52:14;12.65;;;7.32;;
68940;SDS011;55982;51.476;7.552;2022-12-20T05:54:39;11.07;;;6.97;;
68940;SDS011;55982;51.476;7.552;2022-12-20T05:57:05;10.18;;;7.22;;
68940;SDS011;55982;51.476;7.552;2022-12-20T05:59:30;13.65;;;7.35;;
68940;SDS011;55982;51.476;7.552;2022-12-20T06:01:55;10.20;;;6.50;;
68940;SDS011;55982;51.476;7.552;2022-12-20T06:04:21;11.23;;;6.97;;
68940;SDS011;55982;51.476;7.552;2022-12-20T06:06:46;13.27;;;6.75;;
68940;SDS011;55982;51.476;7.552;2022-12-20T06:09:11;13.68;;;6.70;;
68940;SDS011;55982;51.476;7.552;2022-12-20T06:11:37;14.63;;;6.28;;
68940;SDS011;55982;51.476;7.552;2022-12-20T06:14:02;11.38;;;6.50;;
68940;SDS011;55982;51.476;7.552;2022-12-20T06:16:28;11.77;;;6.95;;
68940;SDS011;55982;51.476;7.552;2022-12-20T06:18:53;12.50;;;6.60;;
68940;SDS011;55982;51.476;7.552;2022-12-20T06:21:18;9.57;;;6.50;;
68940;SDS011;55982;51.476;7.552;2022-12-20T06:23:44;10.48;;;6.30;;
68940;SDS011;55982;51.476;7.552;2022-12-20T06:26:09;9.32;;;6.28;;
68940;SDS011;55982;51.476;7.552;2022-12-20T06:28:35;8.63;;;6.03;;
68940;SDS011;55982;51.476;7.552;2022-12-20T06:31:07;8.63;;;5.72;;
68940;SDS011;55982;51.476;7.552;2022-12-20T06:33:33;12.02;;;5.90;;
68940;SDS011;55982;51.476;7.552;2022-12-20T06:35:59;9.68;;;5.72;;
68940;SDS011;55982;51.476;7.552;2022-12-20T06:38:24;10.60;;;6.07;;
68940;SDS011;55982;51.476;7.552;2022-12-20T06:40:50;9.25;;;6.22;;
68940;SDS011;55982;51.476;7.552;2022-12-20T06:43:15;11.20;;;5.88;;
68940;SDS011;55982;51.476;7.552;2022-12-20T06:45:41;7.88;;;5.70;;
68940;SDS011;55982;51.476;7.552;2022-12-20T06:48:06;7.40;;;5.43;;
68940;SDS011;55982;51.476;7.552;2022-12-20T06:50:32;10.02;;;5.82;;
68940;SDS011;55982;51.476;7.552;2022-12-20T06:52:57;8.75;;;5.40;;
68940;SDS011;55982;51.476;7.552;2022-12-20T06:55:22;9.90;;;5.88;;
68940;SDS011;55982;51.476;7.552;2022-12-20T06:57:48;8.52;;;5.40;;
68940;SDS011;55982;51.476;7.552;2022-12-20T07:00:13;10.82;;;5.20;;
68940;SDS011;55982;51.476;7.552;2022-12-20T07:02:39;11.25;;;5.50;;
68940;SDS011;55982;51.476;7.552;2022-12-20T07:05:05;9.27;;;5.60;;
68940;SDS011;55982;51.476;7.552;2022-12-20T07:07:31;10.93;;;5.30;;
68940;SDS011;55982;51.476;7.552;2022-12-20T07:09:56;7.05;;;5.20;;
68940;SDS011;55982;51.476;7.552;2022-12-20T07:12:21;6.95;;;4.80;;
68940;SDS011;55982;51.476;7.552;2022-12-20T07:14:47;9.68;;;5.28;;
68940;SDS011;55982;51.476;7.552;2022-12-20T07:17:13;7.30;;;4.60;;
68940;SDS011;55982;51.476;7.552;2022-12-20T07:19:39;9.05;;;5.22;;
68940;SDS011;55982;51.476;7.552;2022-12-20T07:22:05;12.35;;;5.30;;
68940;SDS011;55982;51.476;7.552;2022-12-20T07:24:30;8.73;;;4.65;;
68940;SDS011;55982;51.476;7.552;2022-12-20T07:26:56;8.90;;;5.40;;
68940;SDS011;55982;51.476;7.552;2022-12-20T07:29:22;7.07;;;4.57;;
68940;SDS011;55982;51.476;7.552;2022-12-20T07:31:47;7.78;;;4.65;;
68940;SDS011;55982;51.476;7.552;2022-12-20T07:34:13;10.85;;;5.25;;
68940;SDS011;55982;51.476;7.552;2022-12-20T07:36:38;9.98;;;5.35;;
68940;SDS011;55982;51.476;7.552;2022-12-20T07:39:04;7.72;;;5.32;;
68940;SDS011;55982;51.476;7.552;2022-12-20T07:41:29;11.65;;;5.05;;
68940;SDS011;55982;51.476;7.552;2022-12-20T07:43:55;7.25;;;5.05;;
68940;SDS011;55982;51.476;7.552;2022-12-20T07:46:23;6.50;;;4.75;;
68940;SDS011;55982;51.476;7.552;2022-12-20T07:48:48;6.68;;;4.68;;
68940;SDS011;55982;51.476;7.552;2022-12-20T07:51:14;6.88;;;4.93;;
68940;SDS011;55982;51.476;7.552;2022-12-20T07:53:45;8.23;;;5.05;;
68940;SDS011;55982;51.476;7.552;2022-12-20T07:56:14;7.88;;;4.50;;
68940;SDS011;55982;51.476;7.552;2022-12-20T07:58:41;10.60;;;4.63;;
68940;SDS011;55982;51.476;7.552;2022-12-20T08:01:08;7.82;;;4.45;;
68940;SDS011;55982;51.476;7.552;2022-12-20T08:03:40;8.60;;;4.15;;
68940;SDS011;55982;51.476;7.552;2022-12-20T08:06:09;6.43;;;3.85;;
68940;SDS011;55982;51.476;7.552;2022-12-20T08:08:37;7.55;;;4.47;;
68940;SDS011;55982;51.476;7.552;2022-12-20T08:11:05;8.10;;;4.35;;
68940;SDS011;55982;51.476;7.552;2022-12-20T08:13:34;6.75;;;4.10;;
68940;SDS011;55982;51.476;7.552;2022-12-20T08:16:00;6.68;;;4.05;;
68940;SDS011;55982;51.476;7.552;2022-12-20T08:18:25;9.98;;;4.60;;
68940;SDS011;55982;51.476;7.552;2022-12-20T08:20:51;9.93;;;4.40;;
68940;SDS011;55982;51.476;7.552;2022-12-20T08:23:16;7.78;;;4.50;;
68940;SDS011;55982;51.476;7.552;2022-12-20T08:25:43;5.50;;;3.80;;
68940;SDS011;55982;51.476;7.552;2022-12-20T08:28:09;6.93;;;3.78;;
68940;SDS011;55982;51.476;7.552;2022-12-20T08:30:34;7.80;;;4.05;;
68940;SDS011;55982;51.476;7.552;2022-12-20T08:32:59;8.07;;;4.03;;
68940;SDS011;55982;51.476;7.552;2022-12-20T08:35:25;7.70;;;3.92;;
68940;SDS011;55982;51.476;7.552;2022-12-20T08:37:50;5.82;;;3.92;;
68940;SDS011;55982;51.476;7.552;2022-12-20T08:40:17;7.95;;;4.15;;
68940;SDS011;55982;51.476;7.552;2022-12-20T08:42:43;4.82;;;3.78;;
68940;SDS011;55982;51.476;7.552;2022-12-20T08:45:08;8.70;;;3.97;;
68940;SDS011;55982;51.476;7.552;2022-12-20T08:47:34;5.80;;;4.32;;
68940;SDS011;55982;51.476;7.552;2022-12-20T08:49:59;5.63;;;3.95;;
68940;SDS011;55982;51.476;7.552;2022-12-20T08:52:26;6.45;;;4.18;;
68940;SDS011;55982;51.476;7.552;2022-12-20T08:54:52;6.72;;;4.20;;
68940;SDS011;55982;51.476;7.552;2022-12-20T08:57:18;6.25;;;4.45;;
68940;SDS011;55982;51.476;7.552;2022-12-20T08:59:43;6.78;;;4.18;;
68940;SDS011;55982;51.476;7.552;2022-12-20T09:02:08;5.93;;;3.92;;
68940;SDS011;55982;51.476;7.552;2022-12-20T09:04:34;10.05;;;3.95;;
68940;SDS011;55982;51.476;7.552;2022-12-20T09:06:59;6.40;;;3.75;;
68940;SDS011;55982;51.476;7.552;2022-12-20T09:09:25;6.72;;;3.50;;
68940;SDS011;55982;51.476;7.552;2022-12-20T09:11:50;7.32;;;3.67;;
68940;SDS011;55982;51.476;7.552;2022-12-20T09:14:16;6.50;;;3.90;;
68940;SDS011;55982;51.476;7.552;2022-12-20T09:16:42;9.13;;;4.22;;
68940;SDS011;55982;51.476;7.552;2022-12-20T09:19:09;11.23;;;3.83;;
68940;SDS011;55982;51.476;7.552;2022-12-20T09:21:36;6.78;;;3.78;;
68940;SDS011;55982;51.476;7.552;2022-12-20T09:24:02;5.80;;;3.50;;
68940;SDS011;55982;51.476;7.552;2022-12-20T09:26:27;8.80;;;3.60;;
68940;SDS011;55982;51.476;7.552;2022-12-20T09:28:53;6.72;;;3.50;;
68940;SDS011;55982;51.476;7.552;2022-12-20T09:31:19;7.20;;;3.63;;
68940;SDS011;55982;51.476;7.552;2022-12-20T09:33:46;3.83;;;3.35;;
68940;SDS011;55982;51.476;7.552;2022-12-20T09:36:13;8.25;;;3.78;;
68940;SDS011;55982;51.476;7.552;2022-12-20T09:38:43;10.75;;;4.40;;
68940;SDS011;55982;51.476;7.552;2022-12-20T09:41:15;7.22;;;3.22;;
68940;SDS011;55982;51.476;7.552;2022-12-20T09:43:48;6.53;;;3.53;;
68940;SDS011;55982;51.476;7.552;2022-12-20T09:46:14;5.72;;;3.85;;
68940;SDS011;55982;51.476;7.552;2022-12-20T09:48:40;8.18;;;3.67;;
68940;SDS011;55982;51.476;7.552;2022-12-20T09:59:20;7.65;;;3.47;;
68940;SDS011;55982;51.476;7.552;2022-12-20T10:01:46;4.63;;;3.45;;
68940;SDS011;55982;51.476;7.552;2022-12-20T10:20:55;5.28;;;3.45;;
68940;SDS011;55982;51.476;7.552;2022-12-20T10:26:28;8.60;;;3.60;;
68940;SDS011;55982;51.476;7.552;2022-12-20T10:28:56;6.63;;;3.20;;
68940;SDS011;55982;51.476;7.552;2022-12-20T10:31:21;5.05;;;3.47;;
68940;SDS011;55982;51.476;7.552;2022-12-20T10:33:47;4.43;;;3.15;;
68940;SDS011;55982;51.476;7.552;2022-12-20T10:36:26;4.88;;;3.03;;
68940;SDS011;55982;51.476;7.552;2022-12-20T10:38:54;4.07;;;2.75;;
68940;SDS011;55982;51.476;7.552;2022-12-20T10:41:56;6.70;;;3.05;;
68940;SDS011;55982;51.476;7.552;2022-12-20T10:44:17;5.20;;;3.10;;
68940;SDS011;55982;51.476;7.552;2022-12-20T10:46:45;4.65;;;3.28;;
68940;SDS011;55982;51.476;7.552;2022-12-20T10:49:20;4.85;;;2.97;;
68940;SDS011;55982;51.476;7.552;2022-12-20T10:51:52;8.82;;;3.25;;
68940;SDS011;55982;51.476;7.552;2022-12-20T10:54:24;6.85;;;3.42;;
68940;SDS011;55982;51.476;7.552;2022-12-20T10:56:55;5.38;;;2.58;;
68940;SDS011;55982;51.476;7.552;2022-12-20T10:59:44;5.60;;;2.72;;
68940;SDS011;55982;51.476;7.552;2022-12-20T11:02:24;4.63;;;2.88;;
68940;SDS011;55982;51.476;7.552;2022-12-20T11:05:00;10.32;;;2.83;;
68940;SDS011;55982;51.476;7.552;2022-12-20T11:07:31;3.90;;;2.80;;
68940;SDS011;55982;51.476;7.552;2022-12-20T11:09:58;5.43;;;2.97;;
68940;SDS011;55982;51.476;7.552;2022-12-20T11:12:25;7.05;;;3.05;;
68940;SDS011;55982;51.476;7.552;2022-12-20T11:15:06;5.30;;;2.83;;
68940;SDS011;55982;51.476;7.552;2022-12-20T11:17:40;5.53;;;2.95;;
68940;SDS011;55982;51.476;7.552;2022-12-20T11:23:23;7.78;;;3.03;;
68940;SDS011;55982;51.476;7.552;2022-12-20T11:39:48;4.05;;;2.45;;
68940;SDS011;55982;51.476;7.552;2022-12-20T11:53:31;6.30;;;2.65;;
68940;SDS011;55982;51.476;7.552;2022-12-20T12:01:19;4.93;;;2.88;;
68940;SDS011;55982;51.476;7.552;2022-12-20T12:06:38;4.65;;;2.70;;
68940;SDS011;55982;51.476;7.552;2022-12-20T12:11:54;6.47;;;2.47;;
68940;SDS011;55982;51.476;7.552;2022-12-20T12:14:42;6.60;;;2.78;;
68940;SDS011;55982;51.476;7.552;2022-12-20T12:17:15;5.43;;;2.50;;
68940;SDS011;55982;51.476;7.552;2022-12-20T12:19:49;4.15;;;2.47;;
68940;SDS011;55982;51.476;7.552;2022-12-20T12:22:19;3.80;;;2.38;;
68940;SDS011;55982;51.476;7.552;2022-12-20T12:24:51;4.40;;;2.47;;
68940;SDS011;55982;51.476;7.552;2022-12-20T12:27:23;5.95;;;2.65;;
68940;SDS011;55982;51.476;7.552;2022-12-20T12:29:51;6.07;;;2.85;;
68940;SDS011;55982;51.476;7.552;2022-12-20T12:32:26;5.75;;;2.70;;
68940;SDS011;55982;51.476;7.552;2022-12-20T12:46:25;4.65;;;2.70;;
68940;SDS011;55982;51.476;7.552;2022-12-20T12:48:56;4.18;;;2.90;;
68940;SDS011;55982;51.476;7.552;2022-12-20T12:51:32;5.22;;;2.95;;
68940;SDS011;55982;51.476;7.552;2022-12-20T12:57:13;7.75;;;2.85;;
68940;SDS011;55982;51.476;7.552;2022-12-20T12:59:44;6.45;;;2.97;;
68940;SDS011;55982;51.476;7.552;2022-12-20T13:07:26;4.35;;;2.92;;
68940;SDS011;55982;51.476;7.552;2022-12-20T13:09:55;5.80;;;2.60;;
68940;SDS011;55982;51.476;7.552;2022-12-20T13:15:02;4.05;;;2.80;;
68940;SDS011;55982;51.476;7.552;2022-12-20T13:17:48;3.55;;;2.67;;
68940;SDS011;55982;51.476;7.552;2022-12-20T13:20:22;4.53;;;2.33;;
68940;SDS011;55982;51.476;7.552;2022-12-20T13:30:40;5.75;;;2.70;;
68940;SDS011;55982;51.476;7.552;2022-12-20T13:33:41;5.90;;;3.15;;
68940;SDS011;55982;51.476;7.552;2022-12-20T13:44:07;4.28;;;2.55;;
68940;SDS011;55982;51.476;7.552;2022-12-20T13:47:00;4.88;;;2.75;;
68940;SDS011;55982;51.476;7.552;2022-12-20T13:49:32;7.85;;;3.00;;
68940;SDS011;55982;51.476;7.552;2022-12-20T13:52:21;4.68;;;2.80;;
68940;SDS011;55982;51.476;7.552;2022-12-20T13:54:52;5.43;;;2.85;;
68940;SDS011;55982;51.476;7.552;2022-12-20T13:57:31;6.55;;;3.25;;
68940;SDS011;55982;51.476;7.552;2022-12-20T14:00:05;4.43;;;3.05;;
68940;SDS011;55982;51.476;7.552;2022-12-20T14:02:39;5.90;;;3.22;;
68940;SDS011;55982;51.476;7.552;2022-12-20T14:05:11;4.47;;;2.78;;
68940;SDS011;55982;51.476;7.552;2022-12-20T14:07:37;8.25;;;2.97;;
68940;SDS011;55982;51.476;7.552;2022-12-20T14:10:11;6.55;;;3.15;;
68940;SDS011;55982;51.476;7.552;2022-12-20T14:12:43;4.90;;;3.10;;
68940;SDS011;55982;51.476;7.552;2022-12-20T14:15:26;5.38;;;2.88;;
68940;SDS011;55982;51.476;7.552;2022-12-20T14:17:53;4.53;;;3.10;;
68940;SDS011;55982;51.476;7.552;2022-12-20T14:20:29;4.70;;;3.17;;
68940;SDS011;55982;51.476;7.552;2022-12-20T14:23:04;5.75;;;3.13;;
68940;SDS011;55982;51.476;7.552;2022-12-20T14:28:04;5.18;;;2.92;;
68940;SDS011;55982;51.476;7.552;2022-12-20T14:35:47;5.38;;;3.35;;
68940;SDS011;55982;51.476;7.552;2022-12-20T14:38:19;4.18;;;3.10;;
68940;SDS011;55982;51.476;7.552;2022-12-20T14:40:52;6.55;;;3.67;;
68940;SDS011;55982;51.476;7.552;2022-12-20T14:43:23;7.15;;;3.72;;
68940;SDS011;55982;51.476;7.552;2022-12-20T14:46:08;5.45;;;3.42;;
68940;SDS011;55982;51.476;7.552;2022-12-20T14:48:43;8.00;;;3.88;;
68940;SDS011;55982;51.476;7.552;2022-12-20T14:51:08;6.97;;;3.97;;
68940;SDS011;55982;51.476;7.552;2022-12-20T14:53:34;4.78;;;3.38;;
68940;SDS011;55982;51.476;7.552;2022-12-20T14:56:01;5.50;;;3.30;;
68940;SDS011;55982;51.476;7.552;2022-12-20T15:00:58;8.32;;;3.58;;
68940;SDS011;55982;51.476;7.552;2022-12-20T15:03:26;8.25;;;4.40;;
68940;SDS011;55982;51.476;7.552;2022-12-20T15:05:53;7.45;;;4.22;;
68940;SDS011;55982;51.476;7.552;2022-12-20T15:08:21;10.98;;;4.18;;
68940;SDS011;55982;51.476;7.552;2022-12-20T15:13:43;8.60;;;4.00;;
68940;SDS011;55982;51.476;7.552;2022-12-20T15:16:14;8.88;;;4.10;;
68940;SDS011;55982;51.476;7.552;2022-12-20T15:18:42;11.38;;;4.47;;
68940;SDS011;55982;51.476;7.552;2022-12-20T15:21:12;6.60;;;4.20;;
68940;SDS011;55982;51.476;7.552;2022-12-20T15:26:17;7.55;;;4.68;;
68940;SDS011;55982;51.476;7.552;2022-12-20T15:28:44;11.23;;;6.38;;
68940;SDS011;55982;51.476;7.552;2022-12-20T15:31:14;7.90;;;4.80;;
68940;SDS011;55982;51.476;7.552;2022-12-20T15:33:42;7.25;;;4.25;;
68940;SDS011;55982;51.476;7.552;2022-12-20T15:36:21;10.05;;;5.40;;
68940;SDS011;55982;51.476;7.552;2022-12-20T15:38:48;13.70;;;4.97;;
68940;SDS011;55982;51.476;7.552;2022-12-20T15:41:21;12.98;;;5.40;;
68940;SDS011;55982;51.476;7.552;2022-12-20T15:43:55;10.40;;;5.25;;
68940;SDS011;55982;51.476;7.552;2022-12-20T15:46:24;6.77;;;3.53;;
68940;SDS011;55982;51.476;7.552;2022-12-20T15:48:49;9.82;;;5.25;;
68940;SDS011;55982;51.476;7.552;2022-12-20T15:51:16;12.68;;;5.80;;
68940;SDS011;55982;51.476;7.552;2022-12-20T15:53:45;8.05;;;5.20;;
68940;SDS011;55982;51.476;7.552;2022-12-20T15:56:18;8.43;;;5.13;;
68940;SDS011;55982;51.476;7.552;2022-12-20T15:58:46;16.25;;;5.30;;
68940;SDS011;55982;51.476;7.552;2022-12-20T16:01:17;13.40;;;5.50;;
68940;SDS011;55982;51.476;7.552;2022-12-20T16:03:48;12.60;;;5.95;;
68940;SDS011;55982;51.476;7.552;2022-12-20T16:06:13;7.53;;;5.47;;
68940;SDS011;55982;51.476;7.552;2022-12-20T16:08:39;12.45;;;6.57;;
68940;SDS011;55982;51.476;7.552;2022-12-20T16:11:05;10.70;;;5.75;;
68940;SDS011;55982;51.476;7.552;2022-12-20T16:13:36;11.55;;;5.90;;
68940;SDS011;55982;51.476;7.552;2022-12-20T16:16:02;11.95;;;5.43;;
68940;SDS011;55982;51.476;7.552;2022-12-20T16:18:27;9.30;;;5.85;;
68940;SDS011;55982;51.476;7.552;2022-12-20T16:20:53;10.23;;;6.28;;
68940;SDS011;55982;51.476;7.552;2022-12-20T16:23:20;9.88;;;5.90;;
68940;SDS011;55982;51.476;7.552;2022-12-20T16:25:48;11.45;;;5.53;;
68940;SDS011;55982;51.476;7.552;2022-12-20T16:28:14;10.88;;;6.18;;
68940;SDS011;55982;51.476;7.552;2022-12-20T16:30:40;8.65;;;5.57;;
68940;SDS011;55982;51.476;7.552;2022-12-20T16:33:05;10.48;;;4.95;;
68940;SDS011;55982;51.476;7.552;2022-12-20T16:35:34;11.55;;;5.10;;
68940;SDS011;55982;51.476;7.552;2022-12-20T16:38:01;13.00;;;6.07;;
68940;SDS011;55982;51.476;7.552;2022-12-20T16:40:28;9.98;;;5.03;;
68940;SDS011;55982;51.476;7.552;2022-12-20T16:42:55;11.25;;;5.43;;
68940;SDS011;55982;51.476;7.552;2022-12-20T16:45:25;7.07;;;5.15;;
68940;SDS011;55982;51.476;7.552;2022-12-20T16:47:52;12.52;;;5.40;;
68940;SDS011;55982;51.476;7.552;2022-12-20T16:50:18;9.13;;;5.35;;
68940;SDS011;55982;51.476;7.552;2022-12-20T16:52:45;10.27;;;5.00;;
68940;SDS011;55982;51.476;7.552;2022-12-20T16:55:12;12.23;;;5.03;;
68940;SDS011;55982;51.476;7.552;2022-12-20T16:57:42;5.60;;;4.47;;
68940;SDS011;55982;51.476;7.552;2022-12-20T17:00:09;11.45;;;5.47;;
68940;SDS011;55982;51.476;7.552;2022-12-20T17:02:40;8.02;;;4.95;;
68940;SDS011;55982;51.476;7.552;2022-12-20T17:05:06;8.57;;;4.80;;
68940;SDS011;55982;51.476;7.552;2022-12-20T17:07:42;15.38;;;6.25;;
68940;SDS011;55982;51.476;7.552;2022-12-20T17:10:09;10.80;;;5.25;;
68940;SDS011;55982;51.476;7.552;2022-12-20T17:12:34;12.13;;;5.32;;
68940;SDS011;55982;51.476;7.552;2022-12-20T17:14:59;9.45;;;5.25;;